Time;durP1;ratioP1;P1;durP2;ratioP2;P2;SDS_P1;SDS_P2;PMS_P1;PMS_P2;Temp;Humidity;BMP_temperature;BMP_pressure;BME280_temperature;BME280_humidity;BME280_pressure;Samples;Min_cycle;Max_cycle;Signal;HPM_P1;HPM_P2
2022/12/19 00:01:38;;;;;;;47.33;23.45;;;-2.80;99.90;;;;;;4892337;29;20326;-67
2022/12/19 00:04:10;;;;;;;44.55;21.77;;;-2.80;99.90;;;;;;4878471;29;20224;-66
2022/12/19 00:06:38;;;;;;;42.20;21.38;;;-2.80;99.90;;;;;;4879068;29;20078;-66
2022/12/19 00:09:11;;;;;;;46.10;22.23;;;-2.80;99.90;;;;;;4882898;29;20497;-66
2022/12/19 00:11:39;;;;;;;45.50;22.35;;;-2.90;99.90;;;;;;4880562;29;20422;-66
2022/12/19 00:14:09;;;;;;;45.10;22.23;;;-2.90;99.90;;;;;;4880657;29;20124;-66
2022/12/19 00:16:37;;;;;;;48.95;23.40;;;-2.90;99.90;;;;;;4892017;29;20037;-65
2022/12/19 00:19:05;;;;;;;45.40;21.80;;;-2.90;99.90;;;;;;4884102;29;20063;-67
2022/12/19 00:21:33;;;;;;;49.88;22.98;;;-2.90;99.90;;;;;;4882048;29;20045;-68
2022/12/19 00:24:06;;;;;;;45.60;23.50;;;-3.00;99.90;;;;;;4893733;29;20064;-67
2022/12/19 00:26:48;;;;;;;44.85;23.10;;;-2.90;99.90;;;;;;4890507;29;20571;-64
2022/12/19 00:29:15;;;;;;;48.05;23.05;;;-3.00;99.90;;;;;;4907636;29;20139;-65
2022/12/19 00:31:43;;;;;;;45.75;23.35;;;-3.00;99.90;;;;;;4905820;29;20055;-65
2022/12/19 00:34:14;;;;;;;43.45;22.33;;;-3.00;99.90;;;;;;4892573;29;20575;-67
2022/12/19 00:36:41;;;;;;;44.33;22.27;;;-3.10;99.90;;;;;;4886291;29;20507;-65
2022/12/19 00:39:10;;;;;;;44.90;22.73;;;-3.10;99.90;;;;;;4882421;29;20529;-67
2022/12/19 00:41:38;;;;;;;50.05;22.85;;;-3.20;99.90;;;;;;4877015;29;20381;-65
2022/12/19 00:44:12;;;;;;;44.72;21.85;;;-3.20;99.90;;;;;;4893665;29;20396;-65
2022/12/19 00:46:41;;;;;;;46.92;23.15;;;-3.20;99.90;;;;;;4899757;29;20056;-66
2022/12/19 00:49:13;;;;;;;47.20;22.67;;;-3.20;99.90;;;;;;4900379;29;20047;-65
2022/12/19 00:51:40;;;;;;;47.67;23.27;;;-3.20;99.90;;;;;;4888821;29;20055;-66
2022/12/19 00:54:08;;;;;;;49.53;23.80;;;-3.20;99.90;;;;;;4899787;29;20053;-67
2022/12/19 00:56:36;;;;;;;47.55;23.38;;;-3.20;99.90;;;;;;4895033;29;20056;-67
2022/12/19 00:59:09;;;;;;;47.30;23.53;;;-3.10;99.90;;;;;;4880828;29;20112;-66
2022/12/19 01:01:40;;;;;;;46.17;22.98;;;-3.10;99.90;;;;;;4882719;29;20101;-67
2022/12/19 01:04:15;;;;;;;47.08;22.90;;;-3.20;99.90;;;;;;4893016;29;20099;-67
2022/12/19 01:06:55;;;;;;;49.15;22.52;;;-3.20;99.90;;;;;;4877521;29;20049;-66
2022/12/19 01:09:32;;;;;;;47.83;23.38;;;-3.20;99.90;;;;;;4884631;29;20331;-67
2022/12/19 01:14:47;;;;;;;45.97;22.10;;;-3.20;99.90;;;;;;4875869;29;20408;-66
2022/12/19 01:17:14;;;;;;;49.75;23.67;;;-3.20;99.90;;;;;;4900733;29;20059;-67
2022/12/19 01:19:41;;;;;;;55.20;23.60;;;-3.10;99.90;;;;;;4895634;29;20052;-67
2022/12/19 01:22:13;;;;;;;47.50;23.50;;;-3.10;99.90;;;;;;4891380;29;20052;-66
2022/12/19 01:24:41;;;;;;;51.80;23.42;;;-3.10;99.90;;;;;;4883615;29;20096;-67
2022/12/19 01:27:08;;;;;;;46.88;22.77;;;-3.00;99.90;;;;;;4901139;29;20079;-67
2022/12/19 01:29:38;;;;;;;48.63;22.55;;;-3.00;99.90;;;;;;4885897;29;20048;-67
2022/12/19 01:32:20;;;;;;;52.37;22.83;;;-3.00;99.90;;;;;;4894446;29;20417;-66
2022/12/19 01:34:47;;;;;;;52.65;24.00;;;-3.00;99.90;;;;;;4882283;29;20293;-66
2022/12/19 01:37:17;;;;;;;51.17;22.33;;;-3.00;99.90;;;;;;4894484;29;20041;-66
2022/12/19 01:39:45;;;;;;;49.70;23.52;;;-3.00;99.90;;;;;;4892137;29;20496;-66
2022/12/19 01:42:18;;;;;;;45.22;22.98;;;-3.00;99.90;;;;;;4907548;29;20049;-66
2022/12/19 01:45:16;;;;;;;48.90;23.42;;;-3.00;99.90;;;;;;4899019;29;20048;-66
2022/12/19 01:47:58;;;;;;;50.15;23.73;;;-3.00;99.90;;;;;;4877185;29;20057;-66
2022/12/19 01:50:36;;;;;;;49.00;23.85;;;-3.00;99.90;;;;;;4898395;29;20100;-66
2022/12/19 01:53:09;;;;;;;55.40;23.27;;;-2.90;99.90;;;;;;4887659;29;20088;-66
2022/12/19 01:55:38;;;;;;;50.08;22.67;;;-3.00;99.90;;;;;;4883138;29;20053;-65
2022/12/19 01:58:07;;;;;;;51.83;23.13;;;-2.90;99.90;;;;;;4896242;29;20049;-69
2022/12/19 02:00:34;;;;;;;48.00;24.15;;;-2.90;99.90;;;;;;4895515;29;20595;-66
2022/12/19 02:03:15;;;;;;;54.38;24.17;;;-2.90;99.90;;;;;;4891595;29;20041;-65
2022/12/19 02:05:43;;;;;;;53.85;25.58;;;-2.90;99.90;;;;;;4872941;29;20492;-66
2022/12/19 02:08:13;;;;;;;53.58;24.85;;;-2.90;99.90;;;;;;4892042;29;20508;-66
2022/12/19 02:10:40;;;;;;;50.42;24.70;;;-3.00;99.90;;;;;;4874707;29;20045;-66
2022/12/19 02:13:09;;;;;;;51.13;24.08;;;-2.90;99.90;;;;;;4875780;29;20052;-66
2022/12/19 02:15:58;;;;;;;51.85;23.80;;;-3.00;99.90;;;;;;4888291;29;20053;-66
2022/12/19 02:18:54;;;;;;;54.95;25.38;;;-2.90;99.90;;;;;;4878716;29;20120;-65
2022/12/19 02:21:41;;;;;;;52.03;24.25;;;-2.90;99.90;;;;;;4891493;29;20104;-66
2022/12/19 02:24:13;;;;;;;51.63;24.90;;;-3.00;99.90;;;;;;4889626;29;20457;-65
2022/12/19 02:26:47;;;;;;;50.80;24.17;;;-3.00;99.90;;;;;;4888724;29;20049;-66
2022/12/19 02:29:43;;;;;;;59.55;28.02;;;-3.00;99.90;;;;;;4879588;29;20512;-66
2022/12/19 02:32:14;;;;;;;53.97;25.35;;;-3.00;99.90;;;;;;4870390;29;20076;-66
2022/12/19 02:34:52;;;;;;;50.50;24.05;;;-2.90;99.90;;;;;;4887506;29;20526;-65
2022/12/19 02:37:27;;;;;;;52.38;23.83;;;-2.90;99.90;;;;;;4883089;29;20057;-67
2022/12/19 02:40:05;;;;;;;53.00;24.63;;;-2.90;99.90;;;;;;4893166;29;20079;-66
2022/12/19 02:42:37;;;;;;;53.92;25.33;;;-2.80;99.90;;;;;;4876209;29;20053;-65
2022/12/19 02:45:07;;;;;;;49.40;23.17;;;-2.90;99.90;;;;;;4877536;29;20445;-66
2022/12/19 02:47:37;;;;;;;56.50;24.23;;;-2.90;99.90;;;;;;4889401;29;20041;-66
2022/12/19 02:50:07;;;;;;;51.92;25.10;;;-2.90;99.90;;;;;;4900108;29;20461;-66
2022/12/19 02:52:34;;;;;;;52.45;24.98;;;-2.80;99.90;;;;;;4897601;29;20171;-67
2022/12/19 02:55:14;;;;;;;53.70;25.33;;;-2.80;99.90;;;;;;4883002;29;20447;-66
2022/12/19 02:58:08;;;;;;;48.22;23.00;;;-2.80;99.90;;;;;;4876452;29;20049;-66
2022/12/19 03:00:53;;;;;;;53.10;23.60;;;-2.80;99.90;;;;;;4878236;29;20516;-66
2022/12/19 03:03:32;;;;;;;52.13;23.80;;;-2.80;99.90;;;;;;4872216;29;20053;-67
2022/12/19 03:06:21;;;;;;;49.83;23.75;;;-2.70;99.90;;;;;;4877010;29;20049;-66
2022/12/19 03:09:20;;;;;;;52.03;23.60;;;-2.70;99.90;;;;;;4900847;29;20045;-67
2022/12/19 03:11:56;;;;;;;53.67;24.67;;;-2.70;99.90;;;;;;4884093;29;20191;-65
2022/12/19 03:14:25;;;;;;;47.58;23.35;;;-2.70;99.90;;;;;;4877575;29;20105;-66
2022/12/19 03:16:54;;;;;;;53.45;23.85;;;-2.80;99.90;;;;;;4890901;29;20127;-66
2022/12/19 03:19:23;;;;;;;54.72;23.60;;;-2.70;99.90;;;;;;4875161;29;20076;-66
2022/12/19 03:21:51;;;;;;;51.45;23.63;;;-2.70;99.90;;;;;;4877370;29;20041;-66
2022/12/19 03:24:19;;;;;;;50.00;23.27;;;-2.70;99.90;;;;;;4894860;29;20047;-65
2022/12/19 03:27:07;;;;;;;50.47;22.83;;;-2.70;99.90;;;;;;4877599;29;20049;-66
2022/12/19 03:29:52;;;;;;;52.28;25.30;;;-2.60;99.90;;;;;;4893754;29;20045;-66
2022/12/19 03:32:22;;;;;;;48.85;23.35;;;-2.60;99.90;;;;;;4881830;29;20136;-68
2022/12/19 03:34:58;;;;;;;54.55;24.58;;;-2.50;99.90;;;;;;4876570;29;20049;-67
2022/12/19 03:37:30;;;;;;;50.05;23.23;;;-2.50;99.90;;;;;;4888182;29;20508;-66
2022/12/19 03:40:03;;;;;;;55.17;25.70;;;-2.50;99.90;;;;;;4878500;29;20049;-67
2022/12/19 03:45:33;;;;;;;47.60;22.75;;;-2.50;99.90;;;;;;4879774;29;20112;-66
2022/12/19 03:48:06;;;;;;;52.38;24.48;;;-2.40;99.90;;;;;;4892163;29;20514;-67
2022/12/19 03:50:47;;;;;;;48.20;23.23;;;-2.40;99.90;;;;;;4884863;29;20427;-67
2022/12/19 03:53:23;;;;;;;54.50;24.58;;;-2.40;99.90;;;;;;4895411;29;20052;-66
2022/12/19 03:56:21;;;;;;;45.40;23.25;;;-2.40;99.90;;;;;;4890864;29;20582;-66
2022/12/19 03:58:56;;;;;;;53.95;23.70;;;-2.30;99.90;;;;;;4885896;29;20048;-66
2022/12/19 04:01:26;;;;;;;49.92;24.33;;;-2.20;99.90;;;;;;4891250;29;20037;-68
2022/12/19 04:03:56;;;;;;;49.22;22.83;;;-2.20;99.90;;;;;;4887867;29;20071;-66
2022/12/19 04:06:27;;;;;;;50.42;24.55;;;-2.30;99.90;;;;;;4888755;29;20107;-65
2022/12/19 04:08:56;;;;;;;55.20;24.23;;;-2.30;99.90;;;;;;4892531;29;20037;-67
2022/12/19 04:11:26;;;;;;;51.58;25.42;;;-2.30;99.90;;;;;;4876549;29;20480;-66
2022/12/19 04:14:03;;;;;;;53.10;24.33;;;-2.30;99.90;;;;;;4878944;29;20053;-66
2022/12/19 04:16:47;;;;;;;49.58;24.02;;;-2.30;99.90;;;;;;4882095;29;20040;-66
2022/12/19 04:19:30;;;;;;;49.92;23.30;;;-2.30;99.90;;;;;;4881431;29;20062;-67
2022/12/19 04:22:15;;;;;;;49.30;23.65;;;-2.30;99.90;;;;;;4887815;29;20057;-67
2022/12/19 04:24:45;;;;;;;50.63;23.42;;;-2.20;99.90;;;;;;4894534;29;20464;-67
2022/12/19 04:27:13;;;;;;;52.35;23.73;;;-2.20;99.90;;;;;;4897056;29;20060;-67
2022/12/19 04:29:42;;;;;;;52.45;23.90;;;-2.20;99.90;;;;;;4882207;29;20136;-68
2022/12/19 04:32:11;;;;;;;44.95;24.17;;;-2.10;99.90;;;;;;4891801;29;20049;-67
2022/12/19 04:34:39;;;;;;;48.03;23.33;;;-2.10;99.90;;;;;;4880943;29;20678;-66
2022/12/19 04:37:10;;;;;;;54.30;24.48;;;-2.10;99.90;;;;;;4871392;29;20390;-66
2022/12/19 04:39:37;;;;;;;50.47;23.83;;;-2.20;99.90;;;;;;4889840;29;20056;-66
2022/12/19 04:42:05;;;;;;;48.38;23.88;;;-2.10;99.90;;;;;;4894207;29;20506;-67
2022/12/19 04:44:32;;;;;;;53.35;24.42;;;-2.10;99.90;;;;;;4886895;29;20510;-66
2022/12/19 04:46:59;;;;;;;48.78;23.38;;;-2.20;99.90;;;;;;4885203;29;20729;-68
2022/12/19 04:49:27;;;;;;;49.75;23.63;;;-2.10;99.90;;;;;;4884588;29;20041;-67
2022/12/19 04:51:55;;;;;;;51.53;24.23;;;-2.10;99.90;;;;;;4895255;29;20498;-66
2022/12/19 04:54:22;;;;;;;54.47;24.77;;;-2.10;99.90;;;;;;4870372;29;20475;-67
2022/12/19 04:56:49;;;;;;;52.17;23.55;;;-2.10;99.90;;;;;;4882914;29;20048;-67
2022/12/19 04:59:16;;;;;;;53.40;26.05;;;-2.10;99.90;;;;;;4891786;29;20144;-66
2022/12/19 05:01:44;;;;;;;57.47;24.92;;;-2.20;99.90;;;;;;4892551;29;20055;-68
2022/12/19 05:04:11;;;;;;;56.33;25.45;;;-2.20;99.90;;;;;;4884254;29;20508;-66
2022/12/19 05:06:39;;;;;;;52.90;25.23;;;-2.10;99.90;;;;;;4877334;29;20065;-69
2022/12/19 05:09:06;;;;;;;51.60;24.23;;;-2.10;99.90;;;;;;4880696;29;20049;-68
2022/12/19 05:11:33;;;;;;;52.72;25.13;;;-2.00;99.90;;;;;;4875349;29;20053;-66
2022/12/19 05:14:01;;;;;;;55.50;25.30;;;-2.00;99.90;;;;;;4879216;29;20462;-66
2022/12/19 05:16:28;;;;;;;54.63;25.90;;;-2.00;99.90;;;;;;4882521;29;20045;-66
2022/12/19 05:18:55;;;;;;;54.58;24.45;;;-2.00;99.90;;;;;;4884952;29;20036;-66
2022/12/19 05:21:23;;;;;;;55.55;25.95;;;-2.00;99.90;;;;;;4901117;29;20053;-66
2022/12/19 05:23:50;;;;;;;54.17;24.95;;;-1.90;99.90;;;;;;4876107;29;20524;-68
2022/12/19 05:26:18;;;;;;;59.78;26.80;;;-1.90;99.90;;;;;;4882308;29;20059;-66
2022/12/19 05:28:46;;;;;;;61.25;25.30;;;-1.90;99.90;;;;;;4875694;29;20055;-67
2022/12/19 05:31:19;;;;;;;59.15;27.75;;;-1.80;99.90;;;;;;4894822;29;20060;-68
2022/12/19 05:33:47;;;;;;;57.45;26.27;;;-1.80;99.90;;;;;;4888894;29;20124;-66
2022/12/19 05:36:16;;;;;;;53.65;25.75;;;-1.80;99.90;;;;;;4891743;29;20432;-66
2022/12/19 05:38:43;;;;;;;56.22;24.95;;;-1.90;99.90;;;;;;4900969;29;20432;-66
2022/12/19 05:41:14;;;;;;;54.65;24.88;;;-1.90;99.90;;;;;;4877102;29;20540;-66
2022/12/19 05:43:43;;;;;;;53.50;24.40;;;-1.90;99.90;;;;;;4906347;29;20047;-65
2022/12/19 05:46:11;;;;;;;55.20;24.85;;;-1.90;99.90;;;;;;4877107;29;20060;-66
2022/12/19 05:48:38;;;;;;;52.97;23.67;;;-1.80;99.90;;;;;;4885741;29;20155;-66
2022/12/19 05:51:05;;;;;;;55.63;25.98;;;-1.80;99.90;;;;;;4877434;29;20060;-66
2022/12/19 05:53:37;;;;;;;51.85;24.92;;;-1.80;99.90;;;;;;4883480;29;20084;-66
2022/12/19 05:56:12;;;;;;;56.63;26.35;;;-1.80;99.90;;;;;;4874871;29;20064;-67
2022/12/19 05:58:41;;;;;;;57.88;26.08;;;-1.70;99.90;;;;;;4890627;29;20050;-67
2022/12/19 06:01:10;;;;;;;50.13;23.90;;;-1.70;99.90;;;;;;4878226;29;20478;-66
2022/12/19 06:03:38;;;;;;;58.75;26.13;;;-1.70;99.90;;;;;;4871680;29;20068;-68
2022/12/19 06:06:11;;;;;;;59.05;27.20;;;-1.70;99.90;;;;;;4879630;29;20052;-66
2022/12/19 06:08:40;;;;;;;52.92;25.02;;;-1.70;99.90;;;;;;4875028;29;20052;-66
2022/12/19 06:11:08;;;;;;;59.63;26.55;;;-1.60;99.90;;;;;;4874749;29;20120;-67
2022/12/19 06:13:36;;;;;;;55.67;25.27;;;-1.70;99.90;;;;;;4873441;29;20064;-67
2022/12/19 06:16:12;;;;;;;54.70;24.60;;;-1.70;99.90;;;;;;4889433;29;20064;-66
2022/12/19 06:18:41;;;;;;;53.28;25.83;;;-1.70;99.90;;;;;;4877711;29;20140;-66
2022/12/19 06:21:15;;;;;;;53.97;25.58;;;-1.60;99.90;;;;;;4875779;29;20458;-67
2022/12/19 06:23:42;;;;;;;58.83;25.70;;;-1.60;99.90;;;;;;4900815;29;20449;-67
2022/12/19 06:26:12;;;;;;;48.35;23.98;;;-1.60;99.90;;;;;;4890602;29;20132;-67
2022/12/19 06:28:46;;;;;;;54.42;26.10;;;-1.60;99.90;;;;;;4885045;29;20095;-66
2022/12/19 06:31:14;;;;;;;60.08;25.80;;;-1.60;99.90;;;;;;4884538;29;20508;-67
2022/12/19 06:33:41;;;;;;;53.97;26.23;;;-1.60;99.90;;;;;;4895832;29;20052;-66
2022/12/19 06:36:24;;;;;;;52.35;25.40;;;-1.60;99.90;;;;;;4905515;29;20188;-66
2022/12/19 06:38:52;;;;;;;52.88;24.25;;;-1.70;99.90;;;;;;4894167;29;20041;-66
2022/12/19 06:44:09;;;;;;;57.70;26.23;;;-1.60;99.90;;;;;;4880130;29;20037;-67
2022/12/19 06:46:39;;;;;;;57.47;25.23;;;-1.60;99.90;;;;;;4889911;29;20504;-67
2022/12/19 06:49:07;;;;;;;57.75;25.95;;;-1.60;99.90;;;;;;4890774;29;20053;-65
2022/12/19 06:51:35;;;;;;;53.65;25.23;;;-1.60;99.90;;;;;;4877162;29;20057;-66
2022/12/19 06:54:03;;;;;;;54.55;26.05;;;-1.60;99.90;;;;;;4879324;29;20504;-65
2022/12/19 06:56:38;;;;;;;57.20;25.65;;;-1.60;99.90;;;;;;4892160;29;20084;-66
2022/12/19 06:59:06;;;;;;;57.88;24.95;;;-1.50;99.90;;;;;;4888568;29;20049;-65
2022/12/19 07:01:47;;;;;;;51.70;24.58;;;-1.50;99.90;;;;;;4887528;29;20084;-68
2022/12/19 07:04:20;;;;;;;58.42;26.08;;;-1.50;99.90;;;;;;4867383;29;20105;-65
2022/12/19 07:06:48;;;;;;;54.28;24.70;;;-1.50;99.90;;;;;;4892647;29;20075;-66
2022/12/19 07:09:17;;;;;;;56.70;25.25;;;-1.40;99.90;;;;;;4890187;29;20070;-66
2022/12/19 07:11:44;;;;;;;60.65;27.60;;;-1.40;99.90;;;;;;4880308;29;20057;-67
2022/12/19 07:14:11;;;;;;;63.58;28.67;;;-1.40;99.90;;;;;;4877059;29;20243;-66
2022/12/19 07:16:40;;;;;;;57.65;25.90;;;-1.30;99.90;;;;;;4881188;29;20516;-65
2022/12/19 07:19:08;;;;;;;54.20;25.08;;;-1.30;99.90;;;;;;4883422;29;20100;-67
2022/12/19 07:21:37;;;;;;;58.70;25.55;;;-1.20;99.90;;;;;;4890035;29;20109;-67
2022/12/19 07:24:06;;;;;;;55.20;25.17;;;-1.20;99.90;;;;;;4878461;29;20503;-66
2022/12/19 07:26:34;;;;;;;49.20;24.17;;;-1.30;99.90;;;;;;4895221;29;20108;-66
2022/12/19 07:29:02;;;;;;;57.00;25.67;;;-1.20;99.90;;;;;;4883471;29;20144;-66
2022/12/19 07:31:29;;;;;;;56.05;25.70;;;-1.20;99.90;;;;;;4880294;29;20075;-65
2022/12/19 07:33:57;;;;;;;56.88;25.00;;;-1.20;99.90;;;;;;4894134;29;20056;-66
2022/12/19 07:36:26;;;;;;;53.15;25.40;;;-1.20;99.90;;;;;;4899032;29;20525;-66
2022/12/19 07:38:53;;;;;;;54.63;25.65;;;-1.20;99.90;;;;;;4882420;29;20045;-66
2022/12/19 07:41:21;;;;;;;57.35;25.70;;;-1.10;99.90;;;;;;4892645;29;20045;-67
2022/12/19 07:43:48;;;;;;;51.05;25.52;;;-1.20;99.90;;;;;;4884672;29;20040;-66
2022/12/19 07:46:15;;;;;;;61.95;27.95;;;-1.10;99.90;;;;;;4881124;29;20049;-67
2022/12/19 07:48:42;;;;;;;64.57;29.02;;;-1.00;99.90;;;;;;4893844;29;20552;-65
2022/12/19 07:51:10;;;;;;;54.30;26.02;;;-1.00;99.90;;;;;;4891472;29;20471;-65
2022/12/19 07:53:37;;;;;;;58.22;27.58;;;-1.00;99.90;;;;;;4896251;29;20044;-65
2022/12/19 07:56:05;;;;;;;61.25;26.90;;;-1.00;99.90;;;;;;4893726;29;20543;-66
2022/12/19 07:58:32;;;;;;;58.13;26.90;;;-0.90;99.90;;;;;;4898868;29;20071;-67
2022/12/19 08:01:00;;;;;;;60.03;26.80;;;-0.90;99.90;;;;;;4889887;29;20040;-64
2022/12/19 08:03:27;;;;;;;57.80;25.92;;;-0.90;99.90;;;;;;4890145;29;20524;-67
2022/12/19 08:05:59;;;;;;;57.70;26.08;;;-0.90;99.90;;;;;;4882252;29;20041;-68
2022/12/19 08:08:29;;;;;;;61.58;27.25;;;-0.80;99.90;;;;;;4876467;29;20037;-67
2022/12/19 08:11:08;;;;;;;55.22;25.98;;;-0.90;99.90;;;;;;4875238;29;20116;-66
2022/12/19 08:13:35;;;;;;;55.55;26.13;;;-0.80;99.90;;;;;;4891677;29;20496;-65
2022/12/19 08:16:10;;;;;;;60.47;26.73;;;-0.70;99.90;;;;;;4876720;29;20048;-65
2022/12/19 08:18:38;;;;;;;58.92;26.30;;;-0.70;99.90;;;;;;4876167;29;20049;-67
2022/12/19 08:21:07;;;;;;;59.45;27.00;;;-0.70;99.90;;;;;;4889489;29;20052;-65
2022/12/19 08:23:35;;;;;;;54.58;25.50;;;-0.60;99.90;;;;;;4878641;29;20551;-66
2022/12/19 08:26:09;;;;;;;59.03;26.25;;;-0.60;99.90;;;;;;4880906;29;20534;-67
2022/12/19 08:28:36;;;;;;;57.50;26.63;;;-0.50;99.90;;;;;;4881586;29;20547;-68
2022/12/19 08:31:14;;;;;;;56.35;25.48;;;-0.40;99.90;;;;;;4876172;29;20074;-67
2022/12/19 08:33:42;;;;;;;61.42;27.00;;;-0.30;99.90;;;;;;4873780;29;20132;-67
2022/12/19 08:36:12;;;;;;;56.20;26.15;;;-0.30;99.90;;;;;;4905843;29;20045;-67
2022/12/19 08:38:40;;;;;;;53.50;25.75;;;-0.20;99.90;;;;;;4882505;29;20077;-66
2022/12/19 08:41:08;;;;;;;54.90;26.13;;;-0.20;99.90;;;;;;4887527;29;20378;-66
2022/12/19 08:43:35;;;;;;;54.13;25.45;;;-0.10;99.90;;;;;;4872925;29;20317;-67
2022/12/19 08:46:03;;;;;;;56.53;26.73;;;-0.10;99.90;;;;;;4874080;29;20116;-67
2022/12/19 08:48:32;;;;;;;57.88;27.45;;;0.00;99.90;;;;;;4890819;29;20060;-66
2022/12/19 08:51:02;;;;;;;56.45;25.90;;;0.00;99.90;;;;;;4874004;29;20148;-66
2022/12/19 08:53:32;;;;;;;60.80;27.35;;;0.00;99.90;;;;;;4898792;29;20049;-69
2022/12/19 08:56:10;;;;;;;52.25;25.40;;;0.10;99.90;;;;;;4890007;29;20418;-67
2022/12/19 08:58:37;;;;;;;55.10;25.83;;;0.20;99.90;;;;;;4890006;29;20072;-67
2022/12/19 09:01:10;;;;;;;59.78;26.13;;;0.20;99.90;;;;;;4889393;29;20064;-67
2022/12/19 09:03:37;;;;;;;51.55;25.23;;;0.40;99.90;;;;;;4876175;29;20061;-67
2022/12/19 09:06:25;;;;;;;54.25;25.95;;;0.30;99.90;;;;;;4876169;29;20041;-66
2022/12/19 09:08:52;;;;;;;53.95;26.25;;;0.50;99.90;;;;;;4877365;29;20048;-66
2022/12/19 09:11:26;;;;;;;60.58;25.90;;;0.50;99.90;;;;;;4875718;29;20575;-67
2022/12/19 09:13:56;;;;;;;55.13;25.63;;;0.60;99.90;;;;;;4894166;29;20049;-65
2022/12/19 09:16:25;;;;;;;60.88;25.95;;;0.70;99.90;;;;;;4885017;29;20041;-65
2022/12/19 09:18:57;;;;;;;55.67;25.33;;;0.80;99.90;;;;;;4900921;29;20052;-65
2022/12/19 09:21:27;;;;;;;54.38;24.65;;;0.90;99.90;;;;;;4878786;29;20515;-65
2022/12/19 09:23:57;;;;;;;49.90;24.60;;;0.90;99.90;;;;;;4883145;29;20389;-67
2022/12/19 09:26:34;;;;;;;51.97;25.27;;;1.00;99.90;;;;;;4893941;29;20509;-67
2022/12/19 09:29:03;;;;;;;52.45;25.10;;;1.00;99.90;;;;;;4881090;29;20063;-66
2022/12/19 09:31:48;;;;;;;55.88;25.27;;;1.10;99.90;;;;;;4888676;29;20060;-66
2022/12/19 09:34:27;;;;;;;55.53;25.05;;;1.20;99.90;;;;;;4899038;29;20581;-67
2022/12/19 09:37:09;;;;;;;55.63;25.92;;;1.40;99.90;;;;;;4891772;29;20580;-66
2022/12/19 09:39:47;;;;;;;52.10;24.80;;;1.40;99.90;;;;;;4881071;29;20045;-67
2022/12/19 09:42:30;;;;;;;54.22;25.70;;;1.30;99.90;;;;;;4861818;29;20410;-67
2022/12/19 09:45:20;;;;;;;54.15;25.73;;;1.30;99.90;;;;;;4880285;29;20056;-69
2022/12/19 09:47:59;;;;;;;55.65;26.38;;;1.40;99.90;;;;;;4875875;29;20049;-66
2022/12/19 09:50:38;;;;;;;50.88;25.65;;;1.30;99.90;;;;;;4883117;29;20059;-66
2022/12/19 09:53:20;;;;;;;56.22;26.17;;;1.30;99.90;;;;;;4875854;29;20450;-67
2022/12/19 09:55:48;;;;;;;56.03;25.52;;;1.40;99.90;;;;;;4880150;29;20460;-67
2022/12/19 09:58:15;;;;;;;60.58;28.83;;;1.60;99.90;;;;;;4884806;29;20135;-67
2022/12/19 10:00:49;;;;;;;56.35;27.15;;;1.70;99.90;;;;;;4884596;29;20060;-67
2022/12/19 10:03:40;;;;;;;53.90;26.83;;;1.70;99.90;;;;;;4875147;29;20049;-68
2022/12/19 10:06:18;;;;;;;62.00;27.02;;;1.70;99.90;;;;;;4877374;29;20053;-67
2022/12/19 10:09:14;;;;;;;55.22;25.83;;;1.90;99.90;;;;;;4882276;29;20843;-66
2022/12/19 10:12:25;;;;;;;58.63;26.48;;;2.10;99.90;;;;;;4880290;29;20131;-68
2022/12/19 10:15:42;;;;;;;55.72;24.52;;;2.10;99.90;;;;;;4876082;29;20487;-67
2022/12/19 10:18:33;;;;;;;51.20;24.58;;;2.10;99.90;;;;;;4861338;29;20049;-67
2022/12/19 10:21:36;;;;;;;53.42;25.95;;;2.10;99.90;;;;;;4855796;29;20621;-67
2022/12/19 10:24:44;;;;;;;59.22;26.38;;;2.10;99.90;;;;;;4851627;29;20152;-67
2022/12/19 10:27:43;;;;;;;52.22;26.40;;;2.30;99.90;;;;;;4868297;29;20037;-67
2022/12/19 10:30:30;;;;;;;55.70;26.50;;;2.40;99.90;;;;;;4869307;29;20111;-68
2022/12/19 10:33:16;;;;;;;53.78;26.08;;;2.40;99.90;;;;;;4871746;29;20041;-67
2022/12/19 10:35:52;;;;;;;53.65;25.98;;;2.50;99.90;;;;;;4867899;29;20049;-67
2022/12/19 10:38:34;;;;;;;51.88;25.60;;;2.50;99.90;;;;;;4861686;29;20048;-67
2022/12/19 10:41:27;;;;;;;51.92;25.80;;;2.70;99.90;;;;;;4843646;29;20045;-67
2022/12/19 10:44:04;;;;;;;53.38;26.10;;;2.80;99.90;;;;;;4847762;29;20560;-68
2022/12/19 10:46:42;;;;;;;52.10;26.10;;;2.80;99.90;;;;;;4838527;29;20369;-68
2022/12/19 10:49:11;;;;;;;59.53;27.58;;;2.70;99.90;;;;;;4864977;29;20045;-66
2022/12/19 10:51:41;;;;;;;51.15;25.10;;;2.80;99.90;;;;;;4854554;29;20037;-66
2022/12/19 10:54:08;;;;;;;52.08;25.25;;;2.70;99.90;;;;;;4864269;29;20539;-67
2022/12/19 10:56:35;;;;;;;54.72;25.65;;;2.70;99.90;;;;;;4881439;29;20045;-67
2022/12/19 10:59:15;;;;;;;60.65;27.92;;;2.70;99.90;;;;;;4884275;29;20041;-67
2022/12/19 11:01:44;;;;;;;58.28;28.77;;;2.50;99.90;;;;;;4892822;29;20112;-67
2022/12/19 11:04:23;;;;;;;53.85;26.98;;;2.40;99.90;;;;;;4889492;29;20052;-67
2022/12/19 11:07:10;;;;;;;51.22;26.33;;;2.40;99.90;;;;;;4880778;29;20049;-67
2022/12/19 11:09:42;;;;;;;48.13;25.30;;;2.40;99.90;;;;;;4892613;29;20080;-68
2022/12/19 11:12:32;;;;;;;53.78;27.02;;;2.30;99.90;;;;;;4892481;29;20166;-67
2022/12/19 11:15:19;;;;;;;51.05;25.95;;;2.30;99.90;;;;;;4891531;29;20096;-67
2022/12/19 11:18:08;;;;;;;51.90;26.77;;;2.30;99.90;;;;;;4877224;29;20052;-67
2022/12/19 11:21:00;;;;;;;51.35;26.83;;;2.40;99.90;;;;;;4874302;29;20041;-67
2022/12/19 11:23:56;;;;;;;52.80;24.95;;;2.40;99.90;;;;;;4875990;29;20073;-67
2022/12/19 11:26:49;;;;;;;50.40;24.42;;;2.40;99.90;;;;;;4874605;29;20215;-66
2022/12/19 11:29:49;;;;;;;48.75;25.45;;;2.50;99.90;;;;;;4876217;29;20513;-68
2022/12/19 11:32:39;;;;;;;48.88;24.15;;;2.60;99.90;;;;;;4879616;29;20033;-66
2022/12/19 11:35:23;;;;;;;47.97;24.40;;;2.70;99.90;;;;;;4886609;29;20552;-66
2022/12/19 11:38:04;;;;;;;50.22;24.48;;;2.80;99.90;;;;;;4873685;29;20097;-66
2022/12/19 11:40:40;;;;;;;46.97;24.30;;;2.80;99.90;;;;;;4890960;29;20053;-68
2022/12/19 11:43:41;;;;;;;50.15;25.50;;;2.90;99.90;;;;;;4878673;29;20045;-68
2022/12/19 11:46:29;;;;;;;47.75;24.20;;;2.90;99.90;;;;;;4888789;29;20098;-68
2022/12/19 11:49:08;;;;;;;50.00;24.75;;;3.00;99.90;;;;;;4903662;29;20456;-66
2022/12/19 11:51:50;;;;;;;53.35;24.13;;;3.10;99.90;;;;;;4891590;29;20067;-66
2022/12/19 11:54:31;;;;;;;45.38;23.85;;;3.30;99.90;;;;;;4876373;29;20469;-67
2022/12/19 11:56:59;;;;;;;46.70;23.48;;;3.40;99.90;;;;;;4876845;29;20521;-67
2022/12/19 11:59:37;;;;;;;49.55;23.77;;;3.40;99.90;;;;;;4878396;29;20053;-68
2022/12/19 12:02:35;;;;;;;50.53;25.02;;;3.50;99.90;;;;;;4886626;29;20040;-67
2022/12/19 12:05:24;;;;;;;45.65;24.17;;;3.60;99.90;;;;;;4884563;29;20075;-65
2022/12/19 12:08:13;;;;;;;43.38;23.27;;;3.40;99.90;;;;;;4871498;29;20057;-67
2022/12/19 12:11:11;;;;;;;47.97;24.23;;;3.40;99.90;;;;;;4878391;29;20060;-68
2022/12/19 12:14:10;;;;;;;49.92;24.33;;;3.40;99.90;;;;;;4881353;29;20140;-67
2022/12/19 12:17:09;;;;;;;52.83;25.90;;;3.40;99.90;;;;;;4886045;29;20140;-68
2022/12/19 12:19:59;;;;;;;47.97;23.98;;;3.30;99.90;;;;;;4878041;29;20060;-68
2022/12/19 12:23:07;;;;;;;45.45;23.48;;;3.30;99.90;;;;;;4876089;29;20484;-67
2022/12/19 12:26:27;;;;;;;48.28;23.65;;;3.20;99.90;;;;;;4894699;29;20138;-67
2022/12/19 12:29:22;;;;;;;42.78;23.23;;;2.90;99.90;;;;;;4908379;29;20051;-68
2022/12/19 12:32:28;;;;;;;47.10;22.95;;;3.00;99.90;;;;;;4893093;29;20128;-66
2022/12/19 12:35:30;;;;;;;48.13;23.85;;;2.90;99.90;;;;;;4881394;29;20097;-67
2022/12/19 12:38:20;;;;;;;49.15;24.40;;;2.90;99.90;;;;;;4877320;29;20116;-66
2022/12/19 12:41:08;;;;;;;44.60;24.05;;;3.00;99.90;;;;;;4875971;29;20053;-66
2022/12/19 12:44:05;;;;;;;49.83;24.98;;;3.00;99.90;;;;;;4884715;29;20088;-66
2022/12/19 12:46:39;;;;;;;46.45;24.73;;;3.00;99.90;;;;;;4884244;29;20051;-68
2022/12/19 12:49:33;;;;;;;47.70;23.77;;;3.00;99.90;;;;;;4885457;29;20053;-67
2022/12/19 12:52:03;;;;;;;49.13;23.15;;;3.10;99.90;;;;;;4897860;29;20581;-68
2022/12/19 12:54:40;;;;;;;45.83;24.98;;;3.10;99.90;;;;;;4880163;29;20053;-68
2022/12/19 12:57:34;;;;;;;46.25;24.88;;;3.10;99.90;;;;;;4898553;29;20500;-68
2022/12/19 13:00:24;;;;;;;52.05;24.70;;;3.10;99.90;;;;;;4874867;29;20048;-67
2022/12/19 13:03:03;;;;;;;45.08;24.80;;;3.10;99.90;;;;;;4887782;29;20045;-67
2022/12/19 13:05:30;;;;;;;44.35;23.98;;;3.10;99.90;;;;;;4878932;29;20048;-67
2022/12/19 13:07:58;;;;;;;49.53;25.65;;;3.10;99.90;;;;;;4890013;29;20068;-67
2022/12/19 13:10:31;;;;;;;45.13;23.38;;;3.10;99.90;;;;;;4880649;29;20496;-67
2022/12/19 13:13:13;;;;;;;44.42;24.00;;;3.10;99.90;;;;;;4871533;29;20041;-67
2022/12/19 13:15:47;;;;;;;48.00;23.50;;;3.10;99.90;;;;;;4893642;29;20457;-67
2022/12/19 13:18:34;;;;;;;42.25;22.90;;;3.20;99.90;;;;;;4877509;29;20529;-67
2022/12/19 13:21:03;;;;;;;44.90;23.50;;;3.20;99.90;;;;;;4878980;29;20037;-67